createdAt,value
2023-10-06T06:59:15.961Z,12.54
2023-10-06T07:00:17.151Z,12.60
2023-10-06T07:01:17.124Z,12.67
2023-10-06T07:02:17.206Z,12.71
2023-10-06T07:03:17.280Z,12.75
2023-10-06T07:04:17.298Z,12.83
2023-10-06T07:05:17.413Z,12.92
2023-10-06T07:06:17.672Z,13.00
2023-10-06T07:07:17.575Z,13.08
2023-10-06T07:08:17.679Z,13.14
2023-10-06T07:09:17.693Z,13.22
2023-10-06T07:10:17.771Z,13.26
2023-10-06T07:11:17.956Z,13.36
2023-10-06T07:12:17.958Z,13.42
2023-10-06T07:13:18.030Z,13.45
2023-10-06T07:14:18.179Z,13.52
2023-10-06T07:15:18.185Z,13.57
2023-10-06T07:16:18.292Z,13.62
2023-10-06T07:17:18.439Z,13.69
2023-10-06T07:18:18.510Z,13.73
2023-10-06T07:19:18.522Z,13.78
2023-10-06T07:20:18.624Z,13.79
2023-10-06T07:21:18.711Z,13.88
2023-10-06T07:22:18.779Z,13.92
2023-10-06T07:23:18.935Z,14.03
2023-10-06T07:24:18.935Z,14.10
2023-10-06T07:25:19.020Z,14.17
2023-10-06T07:26:19.177Z,14.18
2023-10-06T07:27:19.206Z,14.27
2023-10-06T07:28:19.315Z,14.33
2023-10-06T07:29:19.385Z,14.33
2023-10-06T07:30:19.434Z,14.37
2023-10-06T07:31:19.529Z,14.36
2023-10-06T07:32:19.606Z,14.37
2023-10-06T07:33:19.713Z,14.42
2023-10-06T07:34:19.761Z,14.50
2023-10-06T07:35:19.872Z,14.52
2023-10-06T07:36:19.947Z,14.57
2023-10-06T07:37:20.045Z,14.55
2023-10-06T07:38:20.178Z,14.51
2023-10-06T07:39:20.225Z,14.51
2023-10-06T07:40:20.273Z,14.55
2023-10-06T07:41:20.397Z,14.60
2023-10-06T07:42:20.467Z,14.60
2023-10-06T07:43:20.521Z,14.61
2023-10-06T07:44:20.641Z,14.62
2023-10-06T07:45:21.817Z,14.60
2023-10-06T07:46:20.892Z,14.62
2023-10-06T07:47:20.922Z,14.64
2023-10-06T07:48:20.900Z,14.68
2023-10-06T07:49:21.006Z,14.75
2023-10-06T07:50:21.118Z,14.84
2023-10-06T07:51:21.293Z,14.89
2023-10-06T07:52:21.270Z,14.95
2023-10-06T07:53:21.411Z,14.96
2023-10-06T07:54:21.423Z,15.01
2023-10-06T07:55:21.524Z,15.07
2023-10-06T07:56:21.622Z,15.11
2023-10-06T07:57:21.710Z,15.14
2023-10-06T07:58:21.807Z,15.10
2023-10-06T07:59:21.891Z,15.14
2023-10-06T08:00:21.941Z,15.16
2023-10-06T08:01:22.068Z,15.32
2023-10-06T08:02:22.149Z,15.38
2023-10-06T08:03:22.183Z,15.41
2023-10-06T08:04:22.264Z,15.50
2023-10-06T08:05:22.353Z,15.51
2023-10-06T08:06:22.417Z,15.56
2023-10-06T08:07:22.488Z,15.56
2023-10-06T08:08:22.611Z,15.51
2023-10-06T08:09:22.636Z,15.47
2023-10-06T08:10:22.727Z,15.53
2023-10-06T08:11:23.216Z,15.49
2023-10-06T08:12:22.921Z,15.50
2023-10-06T08:13:23.032Z,15.49
2023-10-06T08:14:23.111Z,15.51
2023-10-06T08:15:23.137Z,15.62
2023-10-06T08:16:23.238Z,15.60
2023-10-06T08:17:23.358Z,15.62
2023-10-06T08:18:23.385Z,15.57
2023-10-06T08:19:23.446Z,15.59
2023-10-06T08:20:23.591Z,15.60
2023-10-06T08:21:23.571Z,15.62
2023-10-06T08:22:23.650Z,15.57
2023-10-06T08:23:23.734Z,15.56
2023-10-06T08:24:23.821Z,15.53
2023-10-06T08:25:23.903Z,15.41
2023-10-06T08:26:23.985Z,15.43
2023-10-06T08:27:24.046Z,15.36
2023-10-06T08:28:24.153Z,15.32
2023-10-06T08:29:24.246Z,15.32
2023-10-06T08:30:24.294Z,15.29
2023-10-06T08:31:24.418Z,15.31
2023-10-06T08:32:24.510Z,15.27
2023-10-06T08:33:24.600Z,15.20
2023-10-06T08:34:24.633Z,15.25
2023-10-06T08:35:24.737Z,15.32
2023-10-06T08:36:24.746Z,15.50
2023-10-06T08:37:24.828Z,15.82
2023-10-06T08:38:24.989Z,16.09
2023-10-06T08:39:25.030Z,16.23
2023-10-06T08:40:25.125Z,16.31
2023-10-06T08:41:25.245Z,16.52
2023-10-06T08:42:25.325Z,16.61
2023-10-06T08:43:25.343Z,16.50
2023-10-06T08:44:25.512Z,16.64
2023-10-06T08:45:25.578Z,16.67
2023-10-06T08:46:25.649Z,16.93
2023-10-06T08:47:32.343Z,16.78
2023-10-06T08:48:25.849Z,16.79
2023-10-06T08:49:25.955Z,16.96
2023-10-06T08:50:26.001Z,16.98
2023-10-06T08:51:25.998Z,17.21
2023-10-06T08:52:26.078Z,17.40
2023-10-06T08:53:26.189Z,17.46
2023-10-06T08:54:26.236Z,17.55
2023-10-06T08:55:26.323Z,17.87
2023-10-06T08:56:26.411Z,17.78
2023-10-06T08:57:26.449Z,17.81
2023-10-06T08:58:26.518Z,17.74
2023-10-06T08:59:26.690Z,18.05
2023-10-06T09:00:26.732Z,18.55
2023-10-06T09:01:26.788Z,18.84
2023-10-06T09:02:26.990Z,18.35
2023-10-06T09:03:28.819Z,18.33
2023-10-06T09:04:27.053Z,18.15
2023-10-06T09:05:27.151Z,18.14
2023-10-06T09:06:27.222Z,18.35
2023-10-06T09:07:27.330Z,18.54
2023-10-06T09:08:27.427Z,18.75
2023-10-06T09:09:27.586Z,18.82
2023-10-06T09:10:27.601Z,18.84
2023-10-06T09:11:27.686Z,18.85
2023-10-06T09:12:27.770Z,18.80
2023-10-06T09:13:27.797Z,18.45
2023-10-06T09:14:27.886Z,18.33
2023-10-06T09:15:27.948Z,18.62
2023-10-06T09:16:28.099Z,18.52
2023-10-06T09:17:28.136Z,18.33
2023-10-06T09:18:28.171Z,18.52
2023-10-06T09:19:28.222Z,18.70
2023-10-06T09:20:30.755Z,18.52
2023-10-06T09:21:28.390Z,18.72
2023-10-06T09:22:28.465Z,18.99
2023-10-06T09:23:28.582Z,19.04
2023-10-06T09:24:28.643Z,18.95
2023-10-06T09:25:28.704Z,19.19
2023-10-06T09:26:28.969Z,19.54
2023-10-06T09:27:28.872Z,19.96
2023-10-06T09:28:28.943Z,20.02
2023-10-06T09:29:29.047Z,20.10
2023-10-06T09:30:29.101Z,20.41
2023-10-06T09:31:29.251Z,20.05
2023-10-06T09:32:29.961Z,20.24
2023-10-06T09:33:29.342Z,20.57
2023-10-06T09:34:29.436Z,20.08
2023-10-06T09:35:29.519Z,19.66
2023-10-06T09:36:42.586Z,19.50
2023-10-06T09:37:29.685Z,19.47
2023-10-06T09:38:29.783Z,19.66
2023-10-06T09:39:29.842Z,19.83
2023-10-06T09:40:29.912Z,20.02
2023-10-06T09:41:30.046Z,20.06
2023-10-06T09:42:30.076Z,19.92
2023-10-06T09:43:30.133Z,19.99
2023-10-06T09:44:30.299Z,19.76
2023-10-06T09:45:30.300Z,19.74
2023-10-06T09:46:30.370Z,19.69
2023-10-06T09:47:30.560Z,19.80
2023-10-06T09:48:30.545Z,19.84
2023-10-06T09:49:30.583Z,19.80
2023-10-06T09:50:30.708Z,19.59
2023-10-06T09:51:30.751Z,19.54
2023-10-06T09:52:30.844Z,19.94
2023-10-06T09:53:30.907Z,19.71
2023-10-06T09:54:30.972Z,19.68
2023-10-06T09:55:31.050Z,19.66
2023-10-06T09:56:31.186Z,19.73
2023-10-06T09:57:31.200Z,19.56
2023-10-06T09:58:31.288Z,19.54
2023-10-06T09:59:31.416Z,19.44
2023-10-06T10:00:31.557Z,19.40
2023-10-06T10:01:31.732Z,19.22
2023-10-06T10:02:31.763Z,19.19
2023-10-06T10:03:31.857Z,19.54
2023-10-06T10:04:31.770Z,19.61
2023-10-06T10:05:31.893Z,19.56
2023-10-06T10:06:31.951Z,19.36
2023-10-06T10:07:32.032Z,19.40
2023-10-06T10:08:32.127Z,19.47
2023-10-06T10:09:32.217Z,19.32
2023-10-06T10:10:32.275Z,19.25
2023-10-06T10:11:32.456Z,19.48
2023-10-06T10:12:32.424Z,19.69
2023-10-06T10:13:32.494Z,19.74
2023-10-06T10:14:32.604Z,20.02
2023-10-06T10:15:32.681Z,19.92
2023-10-06T10:16:32.822Z,19.80
2023-10-06T10:17:32.884Z,20.06
2023-10-06T10:18:32.966Z,20.24
2023-10-06T10:19:32.985Z,20.17
2023-10-06T10:20:33.091Z,20.31
2023-10-06T10:21:33.144Z,20.61
2023-10-06T10:22:33.278Z,20.31
2023-10-06T10:23:33.306Z,20.28
2023-10-06T10:25:11.536Z,20.52
2023-10-06T10:25:33.454Z,20.74
2023-10-06T10:26:33.582Z,20.80
2023-10-06T10:27:33.629Z,21.12
2023-10-06T10:28:33.705Z,21.07
2023-10-06T10:29:33.773Z,20.82
2023-10-06T10:30:33.834Z,20.89
2023-10-06T10:31:42.097Z,21.06
2023-10-06T10:32:34.018Z,20.97
2023-10-06T10:33:34.049Z,20.94
2023-10-06T10:34:34.117Z,20.92
2023-10-06T10:35:34.210Z,20.94
2023-10-06T10:36:34.258Z,20.38
2023-10-06T10:37:34.341Z,20.54
2023-10-06T10:38:34.535Z,20.54
2023-10-06T10:39:34.481Z,20.87
2023-10-06T10:40:34.552Z,20.92
2023-10-06T10:41:34.646Z,21.16
2023-10-06T10:42:34.730Z,21.17
2023-10-06T10:43:34.814Z,21.62
2023-10-06T10:44:34.887Z,21.69
2023-10-06T10:45:34.970Z,21.47
2023-10-06T10:46:35.049Z,21.49
2023-10-06T10:47:35.264Z,21.65
2023-10-06T10:48:35.206Z,21.47
2023-10-06T10:49:35.274Z,21.46
2023-10-06T10:50:35.403Z,21.14
2023-10-06T10:51:35.423Z,21.31
2023-10-06T10:52:35.517Z,21.10
2023-10-06T10:53:35.603Z,21.19
2023-10-06T10:54:35.676Z,21.52
2023-10-06T10:55:35.827Z,21.44
2023-10-06T10:56:35.861Z,21.35
2023-10-06T10:57:35.939Z,21.40
2023-10-06T10:58:36.015Z,21.58
2023-10-06T10:59:36.075Z,21.62
2023-10-06T11:00:36.181Z,21.46
2023-10-06T11:01:36.218Z,21.46
2023-10-06T11:02:36.364Z,21.62
2023-10-06T11:03:36.445Z,21.75
2023-10-06T11:04:36.505Z,21.65
2023-10-06T11:05:36.589Z,21.83
2023-10-06T11:06:36.639Z,22.03
2023-10-06T11:07:36.777Z,22.18
2023-10-06T11:08:36.873Z,22.25
2023-10-06T11:09:36.933Z,22.12
2023-10-06T11:10:36.999Z,21.99
2023-10-06T11:11:37.096Z,22.02
2023-10-06T11:12:37.172Z,21.92
2023-10-06T11:13:52.113Z,22.03
2023-10-06T11:14:37.338Z,21.43
2023-10-06T11:15:37.429Z,22.02
2023-10-06T11:16:37.564Z,22.06
2023-10-06T11:17:37.645Z,22.06
2023-10-06T11:18:37.735Z,22.05
2023-10-06T11:19:37.809Z,21.84
2023-10-06T11:20:37.996Z,20.87
2023-10-06T11:21:37.962Z,20.35
2023-10-06T11:22:38.022Z,20.28
2023-10-06T11:23:38.145Z,20.10
2023-10-06T11:24:38.193Z,19.83
2023-10-06T11:25:38.291Z,19.73
2023-10-06T11:26:38.397Z,19.62
2023-10-06T11:27:38.464Z,19.71
2023-10-06T11:28:38.537Z,19.71
2023-10-06T11:29:38.685Z,19.51
2023-10-06T11:30:38.680Z,19.51
2023-10-06T11:31:38.742Z,19.59
2023-10-06T11:32:38.914Z,19.71
2023-10-06T11:33:38.895Z,19.81
2023-10-06T11:34:38.969Z,19.80
2023-10-06T11:35:39.043Z,19.74
2023-10-06T11:36:39.100Z,19.68
2023-10-06T11:37:39.183Z,19.63
2023-10-06T11:38:39.246Z,19.46
2023-10-06T11:39:39.330Z,19.39
2023-10-06T11:40:39.403Z,19.48
2023-10-06T11:41:39.479Z,19.68
2023-10-06T11:42:39.609Z,19.84
2023-10-06T11:43:39.662Z,20.03
2023-10-06T11:44:39.778Z,19.92
2023-10-06T11:45:39.818Z,19.94
2023-10-06T11:46:39.877Z,19.86
2023-10-06T11:47:40.059Z,19.81
2023-10-06T11:48:40.191Z,19.83
2023-10-06T11:49:40.138Z,19.87
2023-10-06T11:50:40.249Z,19.96
2023-10-06T11:51:40.331Z,20.05
2023-10-06T11:52:40.372Z,20.05
2023-10-06T11:53:40.513Z,20.08
2023-10-06T11:54:40.544Z,20.13
2023-10-06T11:55:40.627Z,20.02
2023-10-06T11:56:40.742Z,20.02
2023-10-06T11:57:40.761Z,19.80
2023-10-06T11:58:40.822Z,19.76
2023-10-06T11:59:40.902Z,19.73
2023-10-06T12:00:40.964Z,19.62
2023-10-06T12:01:41.169Z,19.59
2023-10-06T12:02:41.260Z,19.59
2023-10-06T12:03:41.413Z,19.65
2023-10-06T12:04:41.322Z,19.69
2023-10-06T12:05:41.377Z,19.69
2023-10-06T12:06:41.451Z,19.77
2023-10-06T12:07:41.562Z,19.91
2023-10-06T12:08:41.628Z,20.18
2023-10-06T12:09:41.700Z,20.48
2023-10-06T12:10:41.757Z,20.61
2023-10-06T12:11:41.826Z,20.77
2023-10-06T12:12:41.902Z,20.73
2023-10-06T12:13:41.995Z,20.55
2023-10-06T12:14:42.099Z,20.57
2023-10-06T12:15:43.099Z,20.54
2023-10-06T12:16:42.315Z,20.58
2023-10-06T12:17:42.369Z,20.67
2023-10-06T12:18:42.359Z,20.72
2023-10-06T12:19:42.471Z,20.64
2023-10-06T12:20:42.637Z,20.54
2023-10-06T12:21:42.645Z,20.55
2023-10-06T12:22:42.717Z,20.52
2023-10-06T12:23:42.792Z,20.52
2023-10-06T12:24:42.860Z,20.35
2023-10-06T12:25:42.971Z,20.32
2023-10-06T12:26:43.048Z,20.42
2023-10-06T12:27:43.117Z,20.35
2023-10-06T12:28:43.195Z,20.32
2023-10-06T12:29:43.272Z,20.31
2023-10-06T12:30:43.448Z,20.26
2023-10-06T12:31:43.444Z,20.13
2023-10-06T12:32:43.604Z,20.10
2023-10-06T12:33:43.685Z,20.10
2023-10-06T12:34:43.661Z,20.01
2023-10-06T12:35:43.781Z,19.95
2023-10-06T12:36:43.847Z,19.87
2023-10-06T12:37:43.937Z,19.91
2023-10-06T12:38:44.026Z,19.96
2023-10-06T12:39:44.084Z,19.96
2023-10-06T12:40:44.284Z,19.80
2023-10-06T12:41:44.414Z,19.77
2023-10-06T12:42:44.416Z,19.77
2023-10-06T12:43:44.477Z,19.63
2023-10-06T12:44:44.566Z,19.65
2023-10-06T12:45:44.601Z,19.65
2023-10-06T12:46:44.735Z,19.61
2023-10-06T12:47:44.849Z,19.66
2023-10-06T12:48:44.821Z,19.69
2023-10-06T12:49:45.035Z,19.66
2023-10-06T12:50:44.999Z,19.81
2023-10-06T12:51:45.087Z,19.87
2023-10-06T12:52:45.143Z,19.91
2023-10-06T12:53:45.235Z,19.86
2023-10-06T12:54:45.368Z,19.76
2023-10-06T12:55:45.422Z,19.61
2023-10-06T12:56:45.480Z,19.56
2023-10-06T12:57:45.592Z,19.54
2023-10-06T12:58:45.677Z,19.50
2023-10-06T12:59:45.764Z,19.43
2023-10-06T13:00:45.924Z,19.37
2023-10-06T13:01:45.975Z,19.41
2023-10-06T13:02:46.156Z,19.54
2023-10-06T13:03:46.361Z,19.51
2023-10-06T13:04:46.790Z,19.58
2023-10-06T13:05:46.284Z,19.61
2023-10-06T13:06:46.409Z,19.61
2023-10-06T13:07:46.447Z,19.59
2023-10-06T13:08:46.543Z,19.56
2023-10-06T13:09:46.606Z,19.59
2023-10-06T13:10:46.661Z,19.63
2023-10-06T13:11:46.752Z,19.73
2023-10-06T13:12:46.824Z,19.68
2023-10-06T13:13:46.913Z,19.65
2023-10-06T13:14:46.992Z,19.76
2023-10-06T13:15:47.043Z,19.87
2023-10-06T13:16:47.096Z,20.02
2023-10-06T13:17:47.244Z,20.14
2023-10-06T13:18:47.284Z,20.16
2023-10-06T13:19:47.398Z,20.31
2023-10-06T13:20:47.517Z,20.38
2023-10-06T13:21:47.548Z,20.26
2023-10-06T13:22:47.603Z,20.33
2023-10-06T13:23:47.682Z,20.48
2023-10-06T13:24:47.813Z,20.43
2023-10-06T13:25:47.869Z,20.38
2023-10-06T13:26:47.970Z,20.43
2023-10-06T13:27:48.085Z,20.32
2023-10-06T13:28:48.170Z,20.39
2023-10-06T13:29:48.225Z,20.42
2023-10-06T13:30:48.310Z,20.55
2023-10-06T13:31:48.492Z,20.87
2023-10-06T13:32:48.540Z,20.94
2023-10-06T13:33:48.538Z,20.69
2023-10-06T13:34:48.641Z,20.54
2023-10-06T13:35:48.706Z,20.32
2023-10-06T13:36:48.784Z,20.26
2023-10-06T13:37:48.853Z,20.21
2023-10-06T13:38:48.905Z,20.17
2023-10-06T13:39:48.987Z,20.13
2023-10-06T13:40:49.052Z,20.18
2023-10-06T13:41:49.142Z,20.24
2023-10-06T13:42:49.228Z,20.36
2023-10-06T13:43:49.294Z,20.47
2023-10-06T13:44:49.414Z,20.58
2023-10-06T13:45:49.475Z,20.36
2023-10-06T13:46:49.565Z,20.42
2023-10-06T13:47:49.694Z,20.54
2023-10-06T13:48:49.848Z,20.47
2023-10-06T13:49:50.792Z,20.32
2023-10-06T13:50:49.900Z,20.31
2023-10-06T13:51:49.938Z,20.31
2023-10-06T13:52:50.041Z,20.35
2023-10-06T13:53:50.135Z,20.31
2023-10-06T13:54:50.262Z,20.14
2023-10-06T13:55:50.317Z,20.03
2023-10-06T13:56:50.399Z,20.10
2023-10-06T13:57:50.460Z,20.13
2023-10-06T13:58:50.541Z,20.13
2023-10-06T13:59:50.637Z,20.13
2023-10-06T14:00:50.693Z,20.16
2023-10-06T14:01:50.773Z,20.05
2023-10-06T14:02:50.976Z,20.08
2023-10-06T14:03:51.116Z,20.17
2023-10-06T14:04:51.034Z,20.20
2023-10-06T14:05:51.094Z,20.28
2023-10-06T14:06:51.219Z,20.36
2023-10-06T14:07:51.274Z,20.23
2023-10-06T14:08:51.365Z,20.35
2023-10-06T14:09:51.439Z,20.47
2023-10-06T14:10:51.542Z,20.57
2023-10-06T14:11:51.608Z,20.54
2023-10-06T14:12:51.685Z,20.57
2023-10-06T14:13:51.746Z,20.67
2023-10-06T14:14:51.850Z,20.70
2023-10-06T14:15:51.981Z,20.62
2023-10-06T14:16:52.072Z,20.57
2023-10-06T14:17:52.168Z,20.51
2023-10-06T14:18:52.198Z,20.58
2023-10-06T14:19:52.295Z,20.43
2023-10-06T14:20:52.393Z,20.38
2023-10-06T14:21:52.488Z,20.36
2023-10-06T14:22:52.546Z,20.31
2023-10-06T14:23:52.612Z,20.29
2023-10-06T14:24:52.719Z,20.24
2023-10-06T14:25:52.783Z,20.18
2023-10-06T14:26:52.884Z,20.21
2023-10-06T14:27:52.946Z,20.35
2023-10-06T14:28:53.048Z,20.24
2023-10-06T14:29:53.114Z,20.23
2023-10-06T14:30:53.265Z,20.20
2023-10-06T14:31:53.311Z,20.14
2023-10-06T14:32:53.371Z,20.17
2023-10-06T14:33:53.458Z,20.14
2023-10-06T14:34:53.567Z,20.11
2023-10-06T14:35:53.642Z,20.05
2023-10-06T14:36:53.749Z,19.92
2023-10-06T14:37:53.783Z,19.87
2023-10-06T14:38:53.886Z,19.86
2023-10-06T14:39:53.928Z,19.83
2023-10-06T14:40:54.001Z,19.87
2023-10-06T14:41:54.110Z,19.84
2023-10-06T14:42:54.186Z,19.83
2023-10-06T14:43:54.277Z,19.86
2023-10-06T14:44:54.355Z,19.83
2023-10-06T14:45:54.447Z,19.83
2023-10-06T14:46:54.695Z,19.81
2023-10-06T14:47:54.663Z,19.78
2023-10-06T14:48:54.701Z,19.73
2023-10-06T14:49:54.752Z,19.66
2023-10-06T14:50:54.840Z,19.69
2023-10-06T14:51:55.080Z,19.71
2023-10-06T14:52:55.133Z,19.73
2023-10-06T14:53:55.104Z,19.78
2023-10-06T14:54:55.181Z,19.84
2023-10-06T14:55:55.255Z,19.84
2023-10-06T14:56:55.441Z,19.78
2023-10-06T14:57:55.428Z,19.77
2023-10-06T14:58:55.485Z,19.74
2023-10-06T14:59:55.548Z,19.73
2023-10-06T15:00:55.655Z,19.68
2023-10-06T15:01:55.713Z,19.77
2023-10-06T15:02:55.916Z,19.84
2023-10-06T15:03:55.948Z,19.94
2023-10-06T15:04:55.959Z,19.95
2023-10-06T15:05:56.046Z,19.95
2023-10-06T15:06:56.123Z,19.94
2023-10-06T15:07:56.233Z,19.94
2023-10-06T15:08:56.285Z,19.94
2023-10-06T15:09:56.376Z,19.91
2023-10-06T15:10:56.448Z,19.91
2023-10-06T15:11:56.525Z,19.83
2023-10-06T15:12:56.620Z,19.77
2023-10-06T15:13:56.660Z,19.66
2023-10-06T15:14:56.739Z,19.61
2023-10-06T15:15:56.840Z,19.63
2023-10-06T15:16:56.895Z,19.58
2023-10-06T15:18:09.139Z,19.51
2023-10-06T15:18:57.119Z,19.54
2023-10-06T15:19:57.121Z,19.58
2023-10-06T15:20:57.226Z,19.54
2023-10-06T15:21:57.385Z,19.47
2023-10-06T15:22:57.427Z,19.48
2023-10-06T15:23:57.485Z,19.46
2023-10-06T15:24:57.559Z,19.46
2023-10-06T15:25:57.637Z,19.33
2023-10-06T15:26:57.719Z,19.32
2023-10-06T15:27:57.805Z,19.36
2023-10-06T15:28:57.908Z,19.32
2023-10-06T15:29:57.954Z,19.28
2023-10-06T15:30:58.039Z,19.25
2023-10-06T15:31:58.232Z,19.25
2023-10-06T15:32:58.250Z,19.25
2023-10-06T15:33:58.327Z,19.25
2023-10-06T15:34:58.418Z,19.22
2023-10-06T15:35:58.484Z,19.21
2023-10-06T15:36:58.559Z,19.18
2023-10-06T15:37:58.702Z,19.16
2023-10-06T15:38:58.760Z,19.13
2023-10-06T15:39:58.841Z,19.13
2023-10-06T15:40:58.925Z,19.11
2023-10-06T15:41:58.986Z,19.11
2023-10-06T15:43:17.346Z,19.07
2023-10-06T15:43:59.900Z,19.10
2023-10-06T15:44:59.260Z,19.10
2023-10-06T15:45:59.386Z,19.06
2023-10-06T15:46:59.434Z,19.04
2023-10-06T15:47:59.500Z,19.02
2023-10-06T15:48:59.564Z,18.99
2023-10-06T15:50:10.736Z,19.00
2023-10-06T15:50:59.815Z,19.02
2023-10-06T15:51:59.828Z,18.92
2023-10-06T15:52:59.948Z,18.88
2023-10-06T15:54:00.012Z,18.90
2023-10-06T15:55:00.166Z,18.85
2023-10-06T15:56:00.233Z,18.78
2023-10-06T15:57:00.243Z,18.80
2023-10-06T15:58:00.332Z,18.78
2023-10-06T15:59:00.453Z,18.72
2023-10-06T16:00:02.111Z,18.69
2023-10-06T16:01:00.561Z,18.63
2023-10-06T16:02:00.951Z,18.60
2023-10-06T16:03:00.854Z,18.58
2023-10-06T16:04:00.805Z,18.55
2023-10-06T16:05:00.885Z,18.52
2023-10-06T16:06:00.936Z,18.50
2023-10-06T16:07:01.010Z,18.47
2023-10-06T16:08:01.136Z,18.44
2023-10-06T16:09:01.175Z,18.45
2023-10-06T16:10:01.264Z,18.47
2023-10-06T16:11:01.505Z,18.45
2023-10-06T16:12:01.445Z,18.42
2023-10-06T16:13:01.518Z,18.41
2023-10-06T16:14:01.615Z,18.39
2023-10-06T16:15:01.682Z,18.36
2023-10-06T16:16:11.397Z,18.33
2023-10-06T16:17:02.721Z,18.30
2023-10-06T16:18:01.971Z,18.29
2023-10-06T16:19:02.106Z,18.29
2023-10-06T16:20:02.145Z,18.25
2023-10-06T16:21:02.261Z,18.23
2023-10-06T16:22:02.283Z,18.21
2023-10-06T16:23:02.409Z,18.17
2023-10-06T16:24:02.468Z,18.17
2023-10-06T16:25:02.533Z,18.12
2023-10-06T16:26:02.674Z,18.10
2023-10-06T16:27:02.714Z,18.07
2023-10-06T16:28:03.539Z,18.03
2023-10-06T16:29:02.923Z,18.00
2023-10-06T16:30:02.982Z,17.97
2023-10-06T16:31:03.091Z,17.93
2023-10-06T16:32:03.333Z,17.95
2023-10-06T16:33:03.249Z,17.90
2023-10-06T16:34:03.303Z,17.90
2023-10-06T16:35:04.565Z,17.92
2023-10-06T16:36:03.471Z,17.92
2023-10-06T16:37:03.579Z,17.87
2023-10-06T16:38:03.655Z,17.81
2023-10-06T16:39:03.730Z,17.81
2023-10-06T16:40:03.783Z,17.77
2023-10-06T16:41:03.914Z,17.75
2023-10-06T16:42:03.952Z,17.72
2023-10-06T16:43:04.017Z,17.72
2023-10-06T16:44:04.141Z,17.71
2023-10-06T16:45:04.212Z,17.70
2023-10-06T16:46:04.368Z,17.66
2023-10-06T16:47:04.438Z,17.62
2023-10-06T16:48:04.524Z,17.59
2023-10-06T16:49:07.454Z,17.66
2023-10-06T16:50:04.653Z,17.68
2023-10-06T16:51:04.702Z,17.68
2023-10-06T16:52:04.772Z,17.75
2023-10-06T16:53:04.878Z,17.74
2023-10-06T16:54:04.913Z,17.71
2023-10-06T16:55:05.004Z,17.71
2023-10-06T16:56:05.127Z,17.70
2023-10-06T16:57:05.157Z,17.64
2023-10-06T16:58:05.227Z,17.66
